Time;durP1;ratioP1;P1;durP2;ratioP2;P2;SDS_P1;SDS_P2;PMS_P1;PMS_P2;Temp;Humidity;BMP_temperature;BMP_pressure;BME280_temperature;BME280_humidity;BME280_pressure;Samples;Min_cycle;Max_cycle;Signal;HPM_P1;HPM_P2
2022/07/21 00:00:47;;;;;;;16.30;11.48;;;;;;;21.73;68.25;93164.94;2071560;69;20598;-72
2022/07/21 00:03:12;;;;;;;13.65;10.40;;;;;;;21.47;67.56;93176.41;2067843;69;20627;-73
2022/07/21 00:05:38;;;;;;;15.93;11.48;;;;;;;21.75;66.77;93190.75;2071569;69;20162;-73
2022/07/21 00:08:04;;;;;;;13.48;11.50;;;;;;;21.61;67.47;93181.78;2071481;69;20163;-74
2022/07/21 00:10:30;;;;;;;15.90;11.88;;;;;;;21.54;67.98;93180.91;2071789;69;20174;-75
2022/07/21 00:12:56;;;;;;;17.33;12.52;;;;;;;21.43;69.00;93196.31;2071551;69;20160;-73
2022/07/21 00:15:24;;;;;;;17.15;12.52;;;;;;;21.36;69.11;93197.56;2071728;69;20581;-75
2022/07/21 00:17:50;;;;;;;13.38;11.75;;;;;;;21.20;70.42;93202.78;2071614;69;20262;-74
2022/07/21 00:20:17;;;;;;;15.43;11.68;;;;;;;21.52;67.38;93194.41;2071715;69;20136;-72
2022/07/21 00:22:43;;;;;;;14.40;11.13;;;;;;;21.38;68.40;93196.88;2068374;69;20184;-71
2022/07/21 00:25:11;;;;;;;14.10;12.13;;;;;;;21.44;68.47;93202.78;2071875;69;20753;-72
2022/07/21 00:27:36;;;;;;;19.02;12.05;;;;;;;21.45;68.32;93202.13;2071643;69;20301;-71
2022/07/21 00:30:05;;;;;;;16.65;11.95;;;;;;;21.41;69.05;93196.28;2068193;69;20255;-72
2022/07/21 00:32:31;;;;;;;14.25;12.55;;;;;;;21.25;69.86;93190.06;2071522;69;20221;-71
2022/07/21 00:34:57;;;;;;;16.00;12.38;;;;;;;21.23;70.04;93182.13;2071706;69;20148;-72
2022/07/21 00:37:23;;;;;;;15.63;13.55;;;;;;;21.08;70.94;93177.41;2071207;69;20187;-71
2022/07/21 00:39:50;;;;;;;17.42;11.85;;;;;;;21.31;66.49;93170.94;2071631;69;20147;-73
2022/07/21 00:42:23;;;;;;;16.92;12.23;;;;;;;21.34;68.64;93171.00;2071371;69;20152;-72
2022/07/21 00:44:49;;;;;;;14.65;11.88;;;;;;;21.41;67.36;93178.38;2068361;69;20656;-73
2022/07/21 00:47:19;;;;;;;16.35;12.95;;;;;;;21.41;67.25;93170.50;2070517;69;20152;-72
2022/07/21 00:49:45;;;;;;;16.45;11.90;;;;;;;21.52;66.37;93180.09;2070859;69;20683;-73
2022/07/21 00:52:10;;;;;;;16.67;11.98;;;;;;;21.55;65.36;93168.03;2071268;69;20172;-75
2022/07/21 00:54:36;;;;;;;16.40;12.05;;;;;;;21.50;65.29;93169.31;2067631;69;20202;-73
2022/07/21 00:57:03;;;;;;;17.13;12.07;;;;;;;21.52;66.99;93177.97;2067808;69;20151;-72
2022/07/21 00:59:29;;;;;;;15.18;11.57;;;;;;;21.37;67.01;93192.56;2071289;69;20160;-71
2022/07/21 01:01:55;;;;;;;16.73;12.32;;;;;;;21.49;66.29;93185.06;2071288;69;20144;-71
2022/07/21 01:04:21;;;;;;;15.63;12.75;;;;;;;20.73;70.16;93187.09;2071339;69;20155;-72
2022/07/21 01:06:47;;;;;;;15.52;12.63;;;;;;;21.19;68.55;93195.59;2071193;69;20147;-71
2022/07/21 01:09:14;;;;;;;13.02;11.38;;;;;;;21.45;65.44;93195.66;2071384;69;20514;-72
2022/07/21 01:11:40;;;;;;;16.35;12.10;;;;;;;21.45;65.32;93193.53;2071392;69;20590;-72
2022/07/21 01:14:06;;;;;;;15.98;12.38;;;;;;;21.20;67.13;93186.34;2071393;69;20174;-71
2022/07/21 01:16:34;;;;;;;14.55;11.65;;;;;;;21.29;66.55;93187.31;2071256;69;20286;-72
2022/07/21 01:19:00;;;;;;;16.83;12.90;;;;;;;21.23;68.09;93178.56;2071173;69;20251;-74
2022/07/21 01:21:35;;;;;;;18.75;12.55;;;;;;;21.29;68.14;93193.03;2070948;69;20191;-72
2022/07/21 01:24:03;;;;;;;18.27;13.32;;;;;;;20.85;70.33;93178.13;2071064;69;20551;-73
2022/07/21 01:26:30;;;;;;;13.40;11.98;;;;;;;21.03;68.31;93182.28;2071131;69;20653;-73
2022/07/21 01:28:57;;;;;;;18.27;13.07;;;;;;;21.18;68.74;93177.69;2071193;69;20193;-73
2022/07/21 01:31:23;;;;;;;15.68;11.45;;;;;;;21.25;68.03;93182.19;2071205;69;20278;-76
2022/07/21 01:33:50;;;;;;;17.27;12.60;;;;;;;21.15;69.23;93184.75;2071268;69;20144;-73
2022/07/21 01:36:16;;;;;;;16.30;11.43;;;;;;;20.97;69.64;93184.94;2071417;69;20225;-72
2022/07/21 01:41:29;;;;;;;15.45;11.38;;;;;;;21.15;69.05;93181.19;2071488;69;20139;-72
2022/07/21 01:44:00;;;;;;;18.90;11.73;;;;;;;21.13;67.47;93193.31;2071409;69;20152;-72
2022/07/21 01:46:26;;;;;;;16.27;12.80;;;;;;;21.00;68.71;93188.63;2071364;69;20198;-72
2022/07/21 01:48:52;;;;;;;18.15;12.00;;;;;;;20.93;68.96;93195.53;2071156;69;20152;-72
2022/07/21 01:51:18;;;;;;;15.27;11.82;;;;;;;21.06;67.94;93200.25;2070951;69;20507;-71
2022/07/21 01:53:44;;;;;;;16.05;11.88;;;;;;;20.89;69.69;93210.47;2071046;69;20190;-70
2022/07/21 01:56:10;;;;;;;14.32;12.05;;;;;;;20.95;69.53;93213.53;2071246;69;20601;-71
2022/07/21 01:58:36;;;;;;;16.65;11.60;;;;;;;20.96;68.98;93217.84;2071319;69;20152;-71
2022/07/21 02:01:02;;;;;;;15.32;11.80;;;;;;;20.99;67.73;93210.78;2071477;69;20144;-70
2022/07/21 02:03:28;;;;;;;13.00;11.63;;;;;;;21.02;68.50;93205.84;2071047;69;20150;-71
2022/07/21 02:06:00;;;;;;;16.48;12.23;;;;;;;20.89;70.01;93206.88;2067457;69;20156;-73
2022/07/21 02:08:26;;;;;;;16.70;11.57;;;;;;;20.95;68.82;93204.94;2067884;69;20147;-71
2022/07/21 02:10:52;;;;;;;15.18;12.50;;;;;;;20.96;68.72;93186.34;2071204;69;20182;-74
2022/07/21 02:13:17;;;;;;;13.55;11.90;;;;;;;20.88;69.88;93191.09;2070888;69;20192;-70
2022/07/21 02:15:43;;;;;;;16.33;12.18;;;;;;;20.96;69.29;93183.50;2071101;69;20622;-70
2022/07/21 02:18:09;;;;;;;18.83;12.75;;;;;;;20.78;71.25;93186.53;2067935;69;20148;-71
2022/07/21 02:20:36;;;;;;;15.55;12.20;;;;;;;20.86;69.80;93183.19;2071190;69;20172;-71
2022/07/21 02:23:01;;;;;;;15.05;11.75;;;;;;;20.81;69.03;93182.34;2067622;69;20229;-72
2022/07/21 02:25:27;;;;;;;18.25;12.60;;;;;;;20.85;69.36;93186.72;2071396;69;20205;-71
2022/07/21 02:27:53;;;;;;;14.90;11.98;;;;;;;20.93;67.78;93181.25;2071152;69;20641;-72
2022/07/21 02:30:18;;;;;;;15.10;11.93;;;;;;;20.96;66.45;93177.78;2071142;69;20148;-73
2022/07/21 02:32:44;;;;;;;13.85;12.05;;;;;;;20.85;68.38;93178.88;2071057;69;20154;-72
2022/07/21 02:35:10;;;;;;;13.23;11.82;;;;;;;20.75;68.97;93178.56;2071323;69;20187;-75
2022/07/21 02:37:38;;;;;;;15.50;12.45;;;;;;;20.50;69.45;93180.66;2071453;69;20148;-73
2022/07/21 02:40:04;;;;;;;14.52;12.00;;;;;;;20.49;70.39;93182.06;2071695;69;20144;-74
2022/07/21 02:42:30;;;;;;;16.38;11.75;;;;;;;20.64;69.19;93182.50;2071483;69;20183;-76
2022/07/21 02:44:55;;;;;;;17.73;12.63;;;;;;;20.76;68.96;93183.63;2071801;69;20179;-76
2022/07/21 02:47:22;;;;;;;16.35;12.43;;;;;;;20.62;70.29;93177.47;2071785;69;20147;-72
2022/07/21 02:49:48;;;;;;;19.88;12.80;;;;;;;20.58;69.14;93179.47;2071681;69;20141;-72
2022/07/21 02:52:14;;;;;;;16.55;11.65;;;;;;;20.74;67.25;93180.69;2071570;69;20148;-71
2022/07/21 02:54:40;;;;;;;15.55;12.25;;;;;;;21.03;64.66;93167.97;2071733;69;20171;-72
2022/07/21 02:57:06;;;;;;;18.35;12.32;;;;;;;20.93;66.18;93164.78;2071628;69;20292;-72
2022/07/21 02:59:31;;;;;;;16.23;12.30;;;;;;;20.86;67.34;93165.31;2071573;69;20141;-72
2022/07/21 03:01:57;;;;;;;15.63;12.23;;;;;;;20.69;68.33;93158.34;2071833;69;20142;-72
2022/07/21 03:04:23;;;;;;;17.15;12.57;;;;;;;20.79;67.42;93172.97;2071618;69;20184;-71
2022/07/21 03:06:48;;;;;;;15.13;12.10;;;;;;;20.73;67.08;93172.78;2071467;69;20159;-71
2022/07/21 03:09:14;;;;;;;14.35;12.18;;;;;;;20.67;67.84;93178.31;2071795;69;20603;-75
2022/07/21 03:11:39;;;;;;;16.55;13.05;;;;;;;20.65;67.96;93186.84;2071297;69;20133;-72
2022/07/21 03:14:05;;;;;;;14.02;11.73;;;;;;;21.06;65.10;93180.94;2071656;69;20510;-74
2022/07/21 03:16:31;;;;;;;16.17;11.82;;;;;;;20.84;67.04;93180.25;2071566;69;20210;-75
2022/07/21 03:18:57;;;;;;;14.55;12.48;;;;;;;20.72;67.54;93186.34;2071407;69;20592;-72
2022/07/21 03:21:23;;;;;;;14.73;12.30;;;;;;;20.66;67.19;93188.28;2071644;69;20144;-72
2022/07/21 03:23:48;;;;;;;16.80;12.38;;;;;;;20.74;65.28;93192.13;2071887;69;20314;-71
2022/07/21 03:26:15;;;;;;;15.52;11.77;;;;;;;20.61;68.28;93193.16;2071731;69;20532;-73
2022/07/21 03:28:42;;;;;;;15.32;11.95;;;;;;;20.61;67.69;93186.69;2071750;69;20149;-70
2022/07/21 03:31:09;;;;;;;15.55;12.57;;;;;;;20.53;68.47;93179.34;2071693;69;20598;-72
2022/07/21 03:33:34;;;;;;;13.40;12.00;;;;;;;20.61;67.40;93181.72;2071706;69;20136;-74
2022/07/21 03:36:01;;;;;;;18.65;12.20;;;;;;;20.59;68.84;93183.78;2071766;69;20172;-73
2022/07/21 03:38:27;;;;;;;13.93;11.75;;;;;;;20.51;69.01;93181.41;2071628;69;20148;-73
2022/07/21 03:40:52;;;;;;;14.25;11.68;;;;;;;20.30;71.00;93177.88;2071625;69;20163;-71
2022/07/21 03:43:18;;;;;;;15.30;12.70;;;;;;;20.37;67.46;93187.38;2072048;69;20144;-71
2022/07/21 03:45:45;;;;;;;15.98;12.05;;;;;;;20.45;69.02;93179.06;2068289;69;20211;-69
2022/07/21 03:48:11;;;;;;;14.95;12.88;;;;;;;20.37;69.10;93186.63;2071433;69;20624;-71
2022/07/21 03:50:42;;;;;;;17.30;13.68;;;;;;;20.24;70.30;93189.09;2071699;69;20202;-71
2022/07/21 03:53:08;;;;;;;17.83;12.90;;;;;;;20.42;68.41;93179.66;2071751;69;20510;-71
2022/07/21 03:55:34;;;;;;;15.05;12.90;;;;;;;20.28;69.42;93177.78;2072001;69;20183;-71
2022/07/21 03:58:03;;;;;;;14.48;12.75;;;;;;;20.34;68.81;93176.53;2071665;69;20310;-70
2022/07/21 04:00:38;;;;;;;17.45;13.35;;;;;;;20.22;70.66;93182.59;2071415;69;20740;-73
2022/07/21 04:03:05;;;;;;;15.88;12.90;;;;;;;20.34;68.17;93188.69;2071781;69;20156;-71
2022/07/21 04:05:32;;;;;;;17.75;13.68;;;;;;;20.04;70.24;93194.16;2071505;69;20160;-71
2022/07/21 04:07:58;;;;;;;16.38;13.75;;;;;;;20.19;69.80;93189.63;2071260;69;20612;-71
2022/07/21 04:10:29;;;;;;;16.70;13.00;;;;;;;20.28;69.45;93194.22;2071232;69;20206;-71
2022/07/21 04:12:56;;;;;;;14.73;12.88;;;;;;;20.18;70.63;93188.19;2068229;69;20151;-71
2022/07/21 04:15:22;;;;;;;16.50;12.82;;;;;;;19.98;71.89;93191.81;2071422;69;20147;-70
2022/07/21 04:17:48;;;;;;;21.08;13.30;;;;;;;19.83;71.93;93192.00;2071448;69;20240;-71
2022/07/21 04:20:15;;;;;;;15.45;13.10;;;;;;;19.78;71.83;93191.13;2071786;69;20228;-71
2022/07/21 04:22:42;;;;;;;14.75;12.27;;;;;;;20.18;69.60;93193.91;2071686;69;20222;-71
2022/07/21 04:25:09;;;;;;;19.23;12.55;;;;;;;20.17;69.99;93190.31;2071746;69;20216;-71
2022/07/21 04:27:36;;;;;;;16.75;12.63;;;;;;;20.14;69.86;93185.91;2071596;69;20148;-71
2022/07/21 04:30:02;;;;;;;17.25;13.60;;;;;;;20.08;70.52;93205.00;2071555;69;20141;-71
2022/07/21 04:32:28;;;;;;;15.13;12.40;;;;;;;20.08;70.76;93202.88;2068307;69;20125;-71
2022/07/21 04:34:54;;;;;;;15.73;12.95;;;;;;;20.16;70.58;93193.81;2069023;69;20159;-71
2022/07/21 04:37:19;;;;;;;15.73;12.45;;;;;;;20.18;69.26;93194.63;2071588;69;20144;-71
2022/07/21 04:39:45;;;;;;;15.55;12.60;;;;;;;20.25;67.12;93202.00;2071807;69;20164;-73
2022/07/21 04:42:10;;;;;;;18.40;12.23;;;;;;;20.18;68.56;93200.34;2071720;69;20163;-73
2022/07/21 04:44:36;;;;;;;17.20;13.13;;;;;;;19.98;71.16;93205.38;2071806;69;20189;-73
2022/07/21 04:47:02;;;;;;;18.55;13.15;;;;;;;20.12;70.59;93208.72;2071782;69;20151;-73
2022/07/21 04:49:28;;;;;;;14.02;12.23;;;;;;;20.26;67.97;93209.19;2071582;69;20198;-73
2022/07/21 04:51:53;;;;;;;16.75;12.82;;;;;;;20.02;70.86;93217.69;2071679;69;20148;-73
2022/07/21 04:54:19;;;;;;;14.38;12.88;;;;;;;20.18;69.79;93208.19;2071534;69;20583;-73
2022/07/21 04:56:45;;;;;;;14.20;12.25;;;;;;;20.08;70.61;93213.56;2068023;69;20143;-73
2022/07/21 04:59:11;;;;;;;15.75;12.45;;;;;;;20.20;70.08;93211.81;2071686;69;20263;-73
2022/07/21 05:01:38;;;;;;;16.50;12.93;;;;;;;20.23;71.03;93219.09;2071764;69;20593;-73
2022/07/21 05:04:04;;;;;;;16.92;12.20;;;;;;;20.31;70.42;93213.63;2071833;69;20144;-74
2022/07/21 05:06:30;;;;;;;16.90;12.60;;;;;;;20.37;70.05;93212.38;2068144;69;20145;-73
2022/07/21 05:08:56;;;;;;;13.68;11.40;;;;;;;20.39;69.58;93213.19;2071803;69;20156;-73
2022/07/21 05:11:22;;;;;;;14.95;12.43;;;;;;;20.36;70.24;93222.34;2071784;69;20282;-73
2022/07/21 05:13:47;;;;;;;15.80;13.00;;;;;;;20.37;69.63;93227.41;2071440;69;20156;-73
2022/07/21 05:16:13;;;;;;;16.75;12.48;;;;;;;20.39;71.21;93224.63;2071733;69;20144;-73
2022/07/21 05:18:38;;;;;;;13.68;12.23;;;;;;;20.43;71.06;93235.44;2068087;69;20267;-73
2022/07/21 05:21:04;;;;;;;14.68;12.60;;;;;;;20.43;69.93;93244.75;2071847;69;20309;-73
2022/07/21 05:23:30;;;;;;;16.42;12.88;;;;;;;20.53;70.89;93244.41;2071670;69;20151;-73
2022/07/21 05:25:55;;;;;;;19.50;12.65;;;;;;;20.63;70.75;93246.84;2071829;69;20498;-73
2022/07/21 05:28:21;;;;;;;15.32;12.80;;;;;;;20.68;70.24;93254.16;2071801;69;20175;-73
2022/07/21 05:30:47;;;;;;;16.95;13.48;;;;;;;20.30;70.17;93254.34;2071699;69;20202;-73
2022/07/21 05:33:12;;;;;;;13.95;12.45;;;;;;;20.69;67.59;93249.91;2071599;69;20172;-73
2022/07/21 05:35:38;;;;;;;14.65;12.90;;;;;;;20.80;69.41;93243.09;2071672;69;20196;-72
2022/07/21 05:38:04;;;;;;;17.00;12.98;;;;;;;20.73;69.41;93245.03;2071538;69;20147;-72
2022/07/21 05:40:32;;;;;;;16.58;13.30;;;;;;;20.90;69.22;93237.69;2068304;69;20140;-72
2022/07/21 05:42:58;;;;;;;16.85;12.63;;;;;;;20.87;68.88;93249.75;2071665;69;20155;-72
2022/07/21 05:45:23;;;;;;;14.25;12.13;;;;;;;21.01;67.81;93244.44;2071727;69;20141;-72
2022/07/21 05:47:49;;;;;;;16.95;13.20;;;;;;;21.03;69.15;93241.66;2071832;69;20176;-71
2022/07/21 05:50:14;;;;;;;15.23;13.63;;;;;;;21.04;68.86;93251.72;2071661;69;20144;-71
2022/07/21 05:52:40;;;;;;;21.05;12.77;;;;;;;21.33;67.09;93253.31;2071611;69;20258;-72
2022/07/21 05:55:07;;;;;;;17.45;12.48;;;;;;;21.37;67.50;93244.84;2071591;69;20265;-71
2022/07/21 05:57:33;;;;;;;18.65;12.38;;;;;;;21.45;67.26;93247.94;2065325;69;20514;-71
2022/07/21 05:59:58;;;;;;;16.35;13.30;;;;;;;21.63;67.28;93241.28;2071683;69;20152;-72
2022/07/21 06:02:25;;;;;;;15.95;12.93;;;;;;;21.66;66.22;93251.38;2068357;69;20604;-71
2022/07/21 06:04:51;;;;;;;17.63;12.63;;;;;;;21.64;67.80;93257.81;2071648;69;20144;-72
2022/07/21 06:07:16;;;;;;;14.27;12.57;;;;;;;21.67;66.92;93239.28;2068126;69;20144;-72
2022/07/21 06:09:42;;;;;;;14.48;12.55;;;;;;;21.70;64.46;93243.63;2071530;69;20140;-72
2022/07/21 06:12:08;;;;;;;16.15;12.55;;;;;;;21.77;62.00;93244.56;2071687;69;20144;-72
2022/07/21 06:14:33;;;;;;;13.82;12.35;;;;;;;21.77;63.60;93253.88;2071574;69;20598;-73
2022/07/21 06:16:59;;;;;;;14.95;12.75;;;;;;;21.36;63.96;93246.25;2071420;69;20145;-72
2022/07/21 06:19:26;;;;;;;14.55;12.60;;;;;;;21.51;63.72;93239.53;2071285;69;20144;-72
2022/07/21 06:21:52;;;;;;;16.90;12.63;;;;;;;21.75;63.85;93242.34;2071517;69;20245;-72
2022/07/21 06:24:19;;;;;;;14.73;13.15;;;;;;;21.63;65.93;93244.16;2071666;69;20136;-72
2022/07/21 06:26:45;;;;;;;17.42;12.88;;;;;;;21.73;65.93;93247.31;2071360;69;20660;-71
2022/07/21 06:29:10;;;;;;;16.98;13.48;;;;;;;21.79;62.97;93236.72;2071583;69;20263;-71
2022/07/21 06:31:36;;;;;;;15.23;13.50;;;;;;;21.41;63.81;93239.25;2071586;69;20180;-72
2022/07/21 06:34:02;;;;;;;14.48;12.95;;;;;;;21.67;62.82;93241.38;2071490;69;20219;-72
2022/07/21 06:36:28;;;;;;;14.98;13.00;;;;;;;21.95;63.30;93244.31;2071403;69;20140;-72
2022/07/21 06:38:54;;;;;;;17.42;13.25;;;;;;;22.20;63.88;93239.97;2071273;69;20175;-72
2022/07/21 06:41:20;;;;;;;15.25;12.38;;;;;;;22.39;64.24;93247.63;2071465;69;20483;-72
2022/07/21 06:43:46;;;;;;;13.48;11.48;;;;;;;22.56;60.65;93246.66;2071445;69;20152;-70
2022/07/21 06:46:12;;;;;;;14.10;12.40;;;;;;;22.76;63.97;93237.06;2071250;69;20258;-73
2022/07/21 06:48:37;;;;;;;17.35;12.93;;;;;;;22.56;63.32;93243.06;2071411;69;20298;-73
2022/07/21 06:51:03;;;;;;;14.00;12.45;;;;;;;22.85;62.68;93244.47;2071524;69;20187;-72
2022/07/21 06:53:29;;;;;;;16.80;13.60;;;;;;;22.92;60.31;93248.25;2071356;69;20128;-72
2022/07/21 06:55:55;;;;;;;15.48;13.75;;;;;;;22.85;60.58;93247.34;2071362;69;20148;-72
2022/07/21 06:58:24;;;;;;;16.65;12.90;;;;;;;22.91;59.90;93244.66;2071420;69;20168;-72
2022/07/21 07:00:50;;;;;;;15.65;12.80;;;;;;;23.09;58.41;93244.31;2068221;69;20616;-72
2022/07/21 07:03:17;;;;;;;16.15;14.20;;;;;;;23.11;59.26;93244.38;2071450;69;20236;-72
2022/07/21 07:05:45;;;;;;;16.98;13.52;;;;;;;23.09;59.38;93250.06;2071183;69;20233;-73
2022/07/21 07:08:12;;;;;;;20.27;13.57;;;;;;;23.47;59.97;93237.97;2071456;69;20241;-74
2022/07/21 07:10:37;;;;;;;18.35;13.00;;;;;;;23.63;60.11;93246.19;2071477;69;20136;-74
2022/07/21 07:13:03;;;;;;;14.95;13.27;;;;;;;23.66;61.20;93245.59;2065471;69;20144;-73
2022/07/21 07:15:29;;;;;;;15.95;13.77;;;;;;;23.73;60.14;93241.44;2070942;69;20152;-72
2022/07/21 07:17:55;;;;;;;15.38;13.02;;;;;;;23.95;59.66;93244.00;2071256;69;20180;-73
2022/07/21 07:20:21;;;;;;;18.77;13.20;;;;;;;24.00;59.16;93233.31;2071525;69;20168;-72
2022/07/21 07:22:49;;;;;;;14.95;13.35;;;;;;;24.07;59.44;93237.78;2071435;69;20223;-72
2022/07/21 07:25:18;;;;;;;18.02;13.50;;;;;;;24.22;57.17;93235.88;2072131;69;20243;-71
2022/07/21 07:27:51;;;;;;;17.27;13.02;;;;;;;24.29;57.00;93229.56;2071914;69;20155;-71
2022/07/21 07:30:18;;;;;;;15.43;13.55;;;;;;;24.37;57.39;93234.00;2068530;69;20267;-72
2022/07/21 07:32:46;;;;;;;16.85;14.07;;;;;;;24.51;59.86;93232.13;2068630;69;20149;-72
2022/07/21 07:35:13;;;;;;;17.48;14.63;;;;;;;24.56;57.39;93236.53;2071799;69;20196;-74
2022/07/21 07:37:40;;;;;;;21.00;15.75;;;;;;;24.57;57.62;93243.75;2071807;69;20677;-73
2022/07/21 07:40:11;;;;;;;18.98;14.23;;;;;;;24.62;56.86;93241.66;2071880;69;20206;-73
2022/07/21 07:42:38;;;;;;;18.45;13.15;;;;;;;24.75;56.40;93240.44;2071747;69;20674;-72
2022/07/21 07:45:06;;;;;;;17.38;14.88;;;;;;;24.06;58.09;93242.78;2068744;69;20137;-73
2022/07/21 07:47:31;;;;;;;17.83;14.20;;;;;;;24.46;56.91;93247.84;2071748;69;20172;-73
2022/07/21 07:49:58;;;;;;;15.60;12.98;;;;;;;24.55;56.58;93248.72;2072022;69;20148;-74
2022/07/21 07:52:24;;;;;;;15.85;14.25;;;;;;;24.52;57.08;93244.38;2071155;69;20156;-76
2022/07/21 07:54:50;;;;;;;14.57;13.07;;;;;;;24.55;55.88;93255.19;2071888;69;20164;-73
2022/07/21 07:57:16;;;;;;;17.63;14.73;;;;;;;23.99;59.05;93254.88;2071876;69;20141;-73
2022/07/21 07:59:42;;;;;;;17.63;15.43;;;;;;;23.68;60.01;93250.63;2068279;69;20172;-72
2022/07/21 08:02:07;;;;;;;15.57;13.88;;;;;;;24.24;58.65;93247.44;2068612;69;20650;-71
2022/07/21 08:04:33;;;;;;;17.10;14.27;;;;;;;24.42;57.07;93239.16;2071916;69;20148;-72
2022/07/21 08:06:58;;;;;;;17.77;14.20;;;;;;;24.56;56.38;93244.44;2071767;69;20599;-72
2022/07/21 08:09:24;;;;;;;17.75;13.70;;;;;;;24.58;56.16;93233.69;2071781;69;20152;-73
2022/07/21 08:11:51;;;;;;;16.30;13.68;;;;;;;24.65;56.92;93240.28;2067845;69;20252;-73
2022/07/21 08:14:17;;;;;;;15.80;13.02;;;;;;;24.84;57.14;93233.38;2071673;69;20155;-73
2022/07/21 08:16:43;;;;;;;14.63;12.90;;;;;;;24.92;55.21;93229.16;2070914;69;20160;-72
2022/07/21 08:19:09;;;;;;;14.93;12.63;;;;;;;24.94;59.49;93224.19;2071740;69;20201;-72
2022/07/21 08:21:34;;;;;;;14.77;12.98;;;;;;;25.10;58.88;93221.56;2071949;69;20176;-72
2022/07/21 08:24:01;;;;;;;15.40;13.80;;;;;;;25.34;57.22;93226.22;2071668;69;20515;-73
2022/07/21 08:26:27;;;;;;;17.05;13.50;;;;;;;25.57;56.98;93219.34;2071509;69;20158;-71
2022/07/21 08:28:54;;;;;;;16.25;14.55;;;;;;;25.73;57.04;93203.66;2071881;69;20144;-72
2022/07/21 08:31:20;;;;;;;14.95;13.45;;;;;;;26.04;57.13;93207.66;2072028;69;20147;-73
2022/07/21 08:33:46;;;;;;;18.05;14.40;;;;;;;26.22;54.99;93210.00;2071967;69;20156;-72
2022/07/21 08:36:11;;;;;;;15.75;14.10;;;;;;;26.27;54.51;93205.72;2071784;69;20272;-72
2022/07/21 08:38:37;;;;;;;16.02;14.30;;;;;;;26.55;53.17;93205.31;2071509;69;20155;-72
2022/07/21 08:41:04;;;;;;;18.00;13.88;;;;;;;27.15;52.66;93201.47;2071713;69;20148;-72
2022/07/21 08:43:30;;;;;;;18.20;13.27;;;;;;;27.49;52.13;93200.19;2071495;69;20257;-72
2022/07/21 08:45:57;;;;;;;15.43;13.75;;;;;;;27.88;51.02;93198.25;2071498;69;20148;-71
2022/07/21 08:48:29;;;;;;;16.42;12.45;;;;;;;27.99;49.97;93196.81;2071671;69;20145;-72
2022/07/21 08:50:56;;;;;;;15.48;13.95;;;;;;;28.24;49.12;93197.63;2070530;69;20144;-71
2022/07/21 08:53:23;;;;;;;15.57;13.93;;;;;;;28.55;49.40;93210.03;2071616;69;20255;-72
2022/07/21 08:55:49;;;;;;;15.25;13.70;;;;;;;29.01;48.97;93197.03;2071727;69;20229;-72
2022/07/21 08:58:18;;;;;;;16.60;13.05;;;;;;;28.74;49.07;93199.19;2071800;69;20615;-73
2022/07/21 09:00:48;;;;;;;14.18;12.73;;;;;;;29.18;46.17;93194.09;2071718;69;20175;-75
2022/07/21 09:03:24;;;;;;;14.30;12.85;;;;;;;29.49;46.54;93195.50;2069823;69;20243;-72
2022/07/21 09:06:00;;;;;;;14.68;12.95;;;;;;;29.45;46.24;93198.41;2072646;69;20174;-73
2022/07/21 09:08:34;;;;;;;15.70;12.75;;;;;;;29.77;45.03;93199.78;2071547;69;20152;-73
2022/07/21 09:11:23;;;;;;;13.88;12.38;;;;;;;28.94;45.52;93197.72;2071631;69;20154;-73
2022/07/21 09:14:05;;;;;;;15.20;11.75;;;;;;;28.68;46.15;93192.66;2071373;69;20684;-71
2022/07/21 09:16:44;;;;;;;13.27;11.90;;;;;;;27.31;48.75;93187.13;2070008;69;20279;-71
2022/07/21 09:19:21;;;;;;;14.55;12.32;;;;;;;27.70;48.71;93198.16;2068535;69;20136;-72
2022/07/21 09:21:49;;;;;;;14.60;12.38;;;;;;;28.18;48.61;93194.75;2070902;69;20186;-71
2022/07/21 09:24:21;;;;;;;15.07;13.48;;;;;;;27.37;49.31;93197.97;2068388;69;20156;-71
2022/07/21 09:27:02;;;;;;;;;;;;;;;28.05;48.53;93187.47;2071685;69;20152;-73
2022/07/21 09:29:36;;;;;;;15.00;13.10;;;;;;;28.07;47.95;93185.28;2069937;69;20040;-74
2022/07/21 09:32:25;;;;;;;14.07;12.68;;;;;;;28.24;47.48;93182.44;2070557;69;20182;-71
2022/07/21 09:35:14;;;;;;;15.30;12.77;;;;;;;28.22;47.23;93179.53;2072006;69;20147;-71
2022/07/21 09:37:41;;;;;;;14.75;13.25;;;;;;;28.38;46.80;93181.78;2072564;69;20175;-72
2022/07/21 09:40:13;;;;;;;23.40;12.63;;;;;;;28.86;46.20;93175.28;2071209;69;20235;-71
2022/07/21 09:42:42;;;;;;;14.70;12.77;;;;;;;28.96;46.17;93175.31;2073387;69;20227;-71
2022/07/21 09:45:11;;;;;;;14.05;12.20;;;;;;;29.72;46.33;93172.97;2073378;69;20151;-70
2022/07/21 09:47:40;;;;;;;13.70;12.35;;;;;;;29.77;45.38;93159.16;2072464;69;20627;-71
2022/07/21 09:50:08;;;;;;;12.98;11.63;;;;;;;30.13;45.02;93169.88;2071879;69;20164;-75
2022/07/21 09:52:38;;;;;;;13.23;11.25;;;;;;;30.84;44.02;93160.03;2071528;69;20143;-71
2022/07/21 09:55:13;;;;;;;14.25;10.98;;;;;;;29.99;43.14;93152.56;2070968;69;20205;-73
2022/07/21 09:57:44;;;;;;;12.27;10.98;;;;;;;29.93;43.51;93162.00;2071283;69;20159;-78
2022/07/21 10:00:14;;;;;;;15.30;10.80;;;;;;;30.93;41.31;93149.78;2071057;69;20660;-70
2022/07/21 10:02:39;;;;;;;11.77;10.38;;;;;;;31.76;39.97;93151.13;2071904;69;20297;-70
2022/07/21 10:05:11;;;;;;;11.70;10.45;;;;;;;31.97;38.99;93145.06;2069453;69;20199;-73
2022/07/21 10:07:40;;;;;;;13.15;10.40;;;;;;;32.52;39.55;93153.78;2068221;69;20151;-71
2022/07/21 10:10:06;;;;;;;12.70;10.27;;;;;;;32.47;38.12;93148.78;2068300;69;20133;-72
2022/07/21 10:12:32;;;;;;;14.07;10.20;;;;;;;32.91;37.03;93149.59;2068447;69;20172;-74
2022/07/21 10:14:58;;;;;;;11.38;10.18;;;;;;;33.43;37.33;93145.03;2070998;69;20136;-72
2022/07/21 10:17:25;;;;;;;11.05;10.05;;;;;;;33.44;35.67;93146.47;2071226;69;20163;-69
2022/07/21 10:20:12;;;;;;;11.98;9.57;;;;;;;33.93;35.07;93139.69;2071556;69;20147;-70
2022/07/21 10:23:11;;;;;;;10.48;9.38;;;;;;;34.55;33.64;93139.16;2071456;69;20606;-69
2022/07/21 10:25:38;;;;;;;11.00;9.90;;;;;;;34.42;34.41;93141.59;2068433;69;20153;-70
2022/07/21 10:28:10;;;;;;;9.82;8.82;;;;;;;34.17;34.75;93134.84;2068190;69;20151;-70
2022/07/21 10:30:38;;;;;;;11.80;9.80;;;;;;;34.05;34.58;93130.72;2071178;69;20140;-70
2022/07/21 10:33:04;;;;;;;10.00;9.05;;;;;;;34.43;35.16;93139.38;2070659;69;20702;-69
2022/07/21 10:35:32;;;;;;;10.45;9.52;;;;;;;34.13;33.75;93138.56;2071164;69;20251;-70
2022/07/21 10:37:59;;;;;;;10.82;9.15;;;;;;;33.62;34.84;93127.91;2069291;69;20203;-73
2022/07/21 10:40:24;;;;;;;10.65;9.57;;;;;;;34.16;33.90;93125.34;2071244;69;20140;-71
2022/07/21 10:42:59;;;;;;;11.60;9.30;;;;;;;33.49;34.12;93126.69;2071542;69;20155;-71
2022/07/21 10:45:38;;;;;;;12.40;8.75;;;;;;;33.17;35.43;93130.91;2071342;69;20239;-72
2022/07/21 10:48:28;;;;;;;10.10;8.95;;;;;;;32.89;35.43;93115.31;2070496;69;20148;-72
2022/07/21 10:50:58;;;;;;;10.18;9.18;;;;;;;33.52;34.83;93119.34;2071186;69;20148;-72
2022/07/21 10:53:23;;;;;;;10.75;9.75;;;;;;;32.55;36.34;93114.41;2070937;69;20152;-70
2022/07/21 10:55:51;;;;;;;15.32;9.40;;;;;;;34.38;34.07;93110.25;2069213;69;20139;-72
2022/07/21 10:58:25;;;;;;;13.20;10.02;;;;;;;34.48;32.29;93123.22;2067149;69;20228;-71
2022/07/21 11:00:59;;;;;;;13.15;11.05;;;;;;;35.62;33.04;93114.53;2070788;69;20685;-71
2022/07/21 11:03:33;;;;;;;12.90;11.18;;;;;;;36.75;31.37;93120.78;2070530;69;20165;-71
2022/07/21 11:06:24;;;;;;;10.40;9.40;;;;;;;37.44;29.53;93126.63;2068814;69;20192;-72
2022/07/21 11:09:08;;;;;;;10.57;8.80;;;;;;;38.30;27.44;93124.25;2070894;69;20133;-73
2022/07/21 11:11:36;;;;;;;9.45;8.55;;;;;;;38.34;27.89;93127.78;2071956;69;20151;-72
2022/07/21 11:14:09;;;;;;;12.27;8.70;;;;;;;40.10;25.72;93136.06;2068368;69;20163;-75
2022/07/21 11:16:41;;;;;;;10.55;8.55;;;;;;;37.34;29.38;93119.56;2071718;69;20163;-74
2022/07/21 11:19:41;;;;;;;9.15;8.18;;;;;;;41.23;25.64;93128.56;2068442;69;20192;-74
2022/07/21 11:22:14;;;;;;;9.02;8.13;;;;;;;35.60;31.26;93106.53;2071865;69;20144;-73
2022/07/21 11:24:49;;;;;;;10.63;8.63;;;;;;;33.85;34.18;93108.44;2071975;69;20238;-74